sensor_id;sensor_type;location;lat;lon;timestamp;P1;durP1;ratioP1;P2;durP2;ratioP2
39264;SDS011;42646;51.910;7.724;2022-11-21T00:01:33;20.40;;;12.13;;
39264;SDS011;42646;51.910;7.724;2022-11-21T00:04:01;19.38;;;12.18;;
39264;SDS011;42646;51.910;7.724;2022-11-21T00:06:28;18.92;;;12.00;;
39264;SDS011;42646;51.910;7.724;2022-11-21T00:08:56;18.98;;;12.35;;
39264;SDS011;42646;51.910;7.724;2022-11-21T00:11:23;20.50;;;12.98;;
39264;SDS011;42646;51.910;7.724;2022-11-21T00:13:51;17.65;;;12.27;;
39264;SDS011;42646;51.910;7.724;2022-11-21T00:16:20;19.77;;;13.40;;
39264;SDS011;42646;51.910;7.724;2022-11-21T00:18:48;20.45;;;13.02;;
39264;SDS011;42646;51.910;7.724;2022-11-21T00:21:17;20.38;;;13.13;;
39264;SDS011;42646;51.910;7.724;2022-11-21T00:23:47;21.73;;;13.38;;
39264;SDS011;42646;51.910;7.724;2022-11-21T00:26:15;22.85;;;14.32;;
39264;SDS011;42646;51.910;7.724;2022-11-21T00:28:43;20.58;;;13.02;;
39264;SDS011;42646;51.910;7.724;2022-11-21T00:31:21;21.33;;;13.52;;
39264;SDS011;42646;51.910;7.724;2022-11-21T00:33:50;20.05;;;12.98;;
39264;SDS011;42646;51.910;7.724;2022-11-21T00:36:17;20.25;;;12.70;;
39264;SDS011;42646;51.910;7.724;2022-11-21T00:38:45;20.65;;;13.63;;
39264;SDS011;42646;51.910;7.724;2022-11-21T00:41:13;22.40;;;13.45;;
39264;SDS011;42646;51.910;7.724;2022-11-21T00:43:41;22.90;;;13.60;;
39264;SDS011;42646;51.910;7.724;2022-11-21T00:46:08;20.35;;;13.48;;
39264;SDS011;42646;51.910;7.724;2022-11-21T00:48:39;22.02;;;14.75;;
39264;SDS011;42646;51.910;7.724;2022-11-21T00:51:07;22.63;;;14.32;;
39264;SDS011;42646;51.910;7.724;2022-11-21T00:53:35;23.00;;;14.50;;
39264;SDS011;42646;51.910;7.724;2022-11-21T00:56:02;22.63;;;14.43;;
39264;SDS011;42646;51.910;7.724;2022-11-21T00:58:30;22.60;;;14.60;;
39264;SDS011;42646;51.910;7.724;2022-11-21T01:01:02;22.40;;;14.75;;
39264;SDS011;42646;51.910;7.724;2022-11-21T01:03:31;23.42;;;14.18;;
39264;SDS011;42646;51.910;7.724;2022-11-21T01:06:02;23.35;;;14.40;;
39264;SDS011;42646;51.910;7.724;2022-11-21T01:08:33;24.48;;;14.18;;
39264;SDS011;42646;51.910;7.724;2022-11-21T01:11:01;22.52;;;14.00;;
39264;SDS011;42646;51.910;7.724;2022-11-21T01:13:30;22.08;;;14.23;;
39264;SDS011;42646;51.910;7.724;2022-11-21T01:16:01;21.50;;;14.18;;
39264;SDS011;42646;51.910;7.724;2022-11-21T01:18:30;21.85;;;13.73;;
39264;SDS011;42646;51.910;7.724;2022-11-21T01:20:58;21.63;;;14.20;;
39264;SDS011;42646;51.910;7.724;2022-11-21T01:23:27;24.50;;;14.85;;
39264;SDS011;42646;51.910;7.724;2022-11-21T01:25:59;25.55;;;14.75;;
39264;SDS011;42646;51.910;7.724;2022-11-21T01:28:27;23.20;;;14.50;;
39264;SDS011;42646;51.910;7.724;2022-11-21T01:31:01;22.73;;;13.13;;
39264;SDS011;42646;51.910;7.724;2022-11-21T01:33:29;21.67;;;13.98;;
39264;SDS011;42646;51.910;7.724;2022-11-21T01:36:04;23.90;;;14.60;;
39264;SDS011;42646;51.910;7.724;2022-11-21T01:38:33;23.20;;;14.50;;
39264;SDS011;42646;51.910;7.724;2022-11-21T01:41:01;23.80;;;14.98;;
39264;SDS011;42646;51.910;7.724;2022-11-21T01:43:29;25.65;;;15.48;;
39264;SDS011;42646;51.910;7.724;2022-11-21T01:45:58;21.98;;;14.95;;
39264;SDS011;42646;51.910;7.724;2022-11-21T01:48:28;24.60;;;14.63;;
39264;SDS011;42646;51.910;7.724;2022-11-21T01:51:04;23.33;;;14.25;;
39264;SDS011;42646;51.910;7.724;2022-11-21T01:53:38;25.77;;;15.35;;
39264;SDS011;42646;51.910;7.724;2022-11-21T01:56:09;25.23;;;15.52;;
39264;SDS011;42646;51.910;7.724;2022-11-21T01:58:37;28.60;;;15.88;;
39264;SDS011;42646;51.910;7.724;2022-11-21T02:01:06;23.02;;;14.98;;
39264;SDS011;42646;51.910;7.724;2022-11-21T02:03:37;23.63;;;14.95;;
39264;SDS011;42646;51.910;7.724;2022-11-21T02:06:05;24.92;;;15.50;;
39264;SDS011;42646;51.910;7.724;2022-11-21T02:08:37;24.77;;;15.55;;
39264;SDS011;42646;51.910;7.724;2022-11-21T02:11:08;21.42;;;14.50;;
39264;SDS011;42646;51.910;7.724;2022-11-21T02:13:41;23.17;;;15.00;;
39264;SDS011;42646;51.910;7.724;2022-11-21T02:16:09;25.30;;;15.80;;
39264;SDS011;42646;51.910;7.724;2022-11-21T02:18:40;25.63;;;15.98;;
39264;SDS011;42646;51.910;7.724;2022-11-21T02:21:10;24.25;;;15.88;;
39264;SDS011;42646;51.910;7.724;2022-11-21T02:23:46;23.15;;;14.90;;
39264;SDS011;42646;51.910;7.724;2022-11-21T02:26:25;25.80;;;15.20;;
39264;SDS011;42646;51.910;7.724;2022-11-21T02:28:56;23.75;;;15.00;;
39264;SDS011;42646;51.910;7.724;2022-11-21T02:31:25;26.08;;;15.35;;
39264;SDS011;42646;51.910;7.724;2022-11-21T02:33:52;26.35;;;17.05;;
39264;SDS011;42646;51.910;7.724;2022-11-21T02:36:28;25.08;;;15.63;;
39264;SDS011;42646;51.910;7.724;2022-11-21T02:39:01;25.92;;;16.10;;
39264;SDS011;42646;51.910;7.724;2022-11-21T02:41:31;25.02;;;16.10;;
39264;SDS011;42646;51.910;7.724;2022-11-21T02:44:03;28.08;;;16.92;;
39264;SDS011;42646;51.910;7.724;2022-11-21T02:49:02;24.63;;;15.50;;
39264;SDS011;42646;51.910;7.724;2022-11-21T02:51:34;23.63;;;15.18;;
39264;SDS011;42646;51.910;7.724;2022-11-21T02:54:02;24.65;;;15.82;;
39264;SDS011;42646;51.910;7.724;2022-11-21T02:56:31;25.73;;;15.85;;
39264;SDS011;42646;51.910;7.724;2022-11-21T02:59:02;26.45;;;16.00;;
39264;SDS011;42646;51.910;7.724;2022-11-21T03:01:30;27.05;;;16.80;;
39264;SDS011;42646;51.910;7.724;2022-11-21T03:03:59;26.88;;;16.58;;
39264;SDS011;42646;51.910;7.724;2022-11-21T03:06:27;27.30;;;16.00;;
39264;SDS011;42646;51.910;7.724;2022-11-21T03:08:56;25.50;;;16.13;;
39264;SDS011;42646;51.910;7.724;2022-11-21T03:11:24;24.90;;;16.23;;
39264;SDS011;42646;51.910;7.724;2022-11-21T03:13:54;25.73;;;16.50;;
39264;SDS011;42646;51.910;7.724;2022-11-21T03:16:22;25.20;;;15.98;;
39264;SDS011;42646;51.910;7.724;2022-11-21T03:18:49;25.60;;;16.42;;
39264;SDS011;42646;51.910;7.724;2022-11-21T03:21:18;24.60;;;15.15;;
39264;SDS011;42646;51.910;7.724;2022-11-21T03:23:45;27.33;;;16.52;;
39264;SDS011;42646;51.910;7.724;2022-11-21T03:26:17;23.65;;;14.65;;
39264;SDS011;42646;51.910;7.724;2022-11-21T03:28:50;27.08;;;16.60;;
39264;SDS011;42646;51.910;7.724;2022-11-21T03:31:43;23.75;;;15.05;;
39264;SDS011;42646;51.910;7.724;2022-11-21T03:34:12;22.80;;;14.95;;
39264;SDS011;42646;51.910;7.724;2022-11-21T03:36:39;24.45;;;15.60;;
39264;SDS011;42646;51.910;7.724;2022-11-21T03:39:07;23.60;;;15.02;;
39264;SDS011;42646;51.910;7.724;2022-11-21T03:41:35;26.63;;;16.88;;
39264;SDS011;42646;51.910;7.724;2022-11-21T03:44:03;24.73;;;15.18;;
39264;SDS011;42646;51.910;7.724;2022-11-21T03:46:33;26.58;;;16.52;;
39264;SDS011;42646;51.910;7.724;2022-11-21T03:49:04;23.98;;;15.65;;
39264;SDS011;42646;51.910;7.724;2022-11-21T03:51:32;26.25;;;16.17;;
39264;SDS011;42646;51.910;7.724;2022-11-21T03:54:01;25.02;;;15.60;;
39264;SDS011;42646;51.910;7.724;2022-11-21T03:56:31;23.48;;;14.93;;
39264;SDS011;42646;51.910;7.724;2022-11-21T03:58:59;23.98;;;15.43;;
39264;SDS011;42646;51.910;7.724;2022-11-21T04:01:27;23.55;;;15.18;;
39264;SDS011;42646;51.910;7.724;2022-11-21T04:04:04;23.95;;;15.43;;
39264;SDS011;42646;51.910;7.724;2022-11-21T04:06:32;23.75;;;15.68;;
39264;SDS011;42646;51.910;7.724;2022-11-21T04:09:01;24.85;;;15.55;;
39264;SDS011;42646;51.910;7.724;2022-11-21T04:11:29;24.42;;;16.15;;
39264;SDS011;42646;51.910;7.724;2022-11-21T04:13:58;24.60;;;16.50;;
39264;SDS011;42646;51.910;7.724;2022-11-21T04:16:25;23.38;;;14.77;;
39264;SDS011;42646;51.910;7.724;2022-11-21T04:18:53;24.40;;;15.30;;
39264;SDS011;42646;51.910;7.724;2022-11-21T04:21:22;23.00;;;15.23;;
39264;SDS011;42646;51.910;7.724;2022-11-21T04:23:50;25.88;;;16.25;;
39264;SDS011;42646;51.910;7.724;2022-11-21T04:26:18;24.60;;;15.10;;
39264;SDS011;42646;51.910;7.724;2022-11-21T04:28:45;22.50;;;14.50;;
39264;SDS011;42646;51.910;7.724;2022-11-21T04:31:13;22.52;;;14.50;;
39264;SDS011;42646;51.910;7.724;2022-11-21T04:33:40;23.77;;;14.73;;
39264;SDS011;42646;51.910;7.724;2022-11-21T04:36:09;25.20;;;16.35;;
39264;SDS011;42646;51.910;7.724;2022-11-21T04:38:38;25.42;;;16.48;;
39264;SDS011;42646;51.910;7.724;2022-11-21T04:41:05;26.58;;;16.35;;
39264;SDS011;42646;51.910;7.724;2022-11-21T04:43:33;25.33;;;15.65;;
39264;SDS011;42646;51.910;7.724;2022-11-21T04:46:02;24.83;;;16.35;;
39264;SDS011;42646;51.910;7.724;2022-11-21T04:48:30;23.88;;;15.82;;
39264;SDS011;42646;51.910;7.724;2022-11-21T04:50:58;25.83;;;15.70;;
39264;SDS011;42646;51.910;7.724;2022-11-21T04:53:26;25.02;;;14.90;;
39264;SDS011;42646;51.910;7.724;2022-11-21T04:55:55;23.63;;;15.73;;
39264;SDS011;42646;51.910;7.724;2022-11-21T04:58:24;24.33;;;15.32;;
39264;SDS011;42646;51.910;7.724;2022-11-21T05:00:53;25.15;;;16.27;;
39264;SDS011;42646;51.910;7.724;2022-11-21T05:03:21;26.67;;;16.20;;
39264;SDS011;42646;51.910;7.724;2022-11-21T05:05:50;24.67;;;16.10;;
39264;SDS011;42646;51.910;7.724;2022-11-21T05:08:17;25.48;;;15.93;;
39264;SDS011;42646;51.910;7.724;2022-11-21T05:10:45;26.95;;;16.20;;
39264;SDS011;42646;51.910;7.724;2022-11-21T05:13:31;26.27;;;16.63;;
39264;SDS011;42646;51.910;7.724;2022-11-21T05:16:00;25.40;;;16.23;;
39264;SDS011;42646;51.910;7.724;2022-11-21T05:18:28;24.90;;;16.75;;
39264;SDS011;42646;51.910;7.724;2022-11-21T05:20:56;24.13;;;15.07;;
39264;SDS011;42646;51.910;7.724;2022-11-21T05:23:25;23.10;;;15.32;;
39264;SDS011;42646;51.910;7.724;2022-11-21T05:25:52;25.23;;;16.42;;
39264;SDS011;42646;51.910;7.724;2022-11-21T05:28:20;24.63;;;15.60;;
39264;SDS011;42646;51.910;7.724;2022-11-21T05:30:49;21.88;;;13.93;;
39264;SDS011;42646;51.910;7.724;2022-11-21T05:33:17;21.90;;;14.57;;
39264;SDS011;42646;51.910;7.724;2022-11-21T05:35:46;21.95;;;14.68;;
39264;SDS011;42646;51.910;7.724;2022-11-21T05:38:14;23.30;;;13.82;;
39264;SDS011;42646;51.910;7.724;2022-11-21T05:40:44;22.35;;;14.75;;
39264;SDS011;42646;51.910;7.724;2022-11-21T05:43:11;22.67;;;14.43;;
39264;SDS011;42646;51.910;7.724;2022-11-21T05:45:58;21.98;;;14.68;;
39264;SDS011;42646;51.910;7.724;2022-11-21T05:48:26;24.08;;;15.43;;
39264;SDS011;42646;51.910;7.724;2022-11-21T05:50:54;28.10;;;17.23;;
39264;SDS011;42646;51.910;7.724;2022-11-21T05:53:21;27.48;;;16.70;;
39264;SDS011;42646;51.910;7.724;2022-11-21T05:55:50;27.38;;;16.85;;
39264;SDS011;42646;51.910;7.724;2022-11-21T05:58:18;27.58;;;17.13;;
39264;SDS011;42646;51.910;7.724;2022-11-21T06:00:46;28.25;;;17.50;;
39264;SDS011;42646;51.910;7.724;2022-11-21T06:03:14;29.02;;;18.20;;
39264;SDS011;42646;51.910;7.724;2022-11-21T06:06:00;32.42;;;17.00;;
39264;SDS011;42646;51.910;7.724;2022-11-21T06:08:31;28.77;;;17.52;;
39264;SDS011;42646;51.910;7.724;2022-11-21T06:11:00;26.40;;;16.45;;
39264;SDS011;42646;51.910;7.724;2022-11-21T06:13:28;28.45;;;16.73;;
39264;SDS011;42646;51.910;7.724;2022-11-21T06:15:59;26.75;;;15.52;;
39264;SDS011;42646;51.910;7.724;2022-11-21T06:18:32;25.58;;;15.60;;
39264;SDS011;42646;51.910;7.724;2022-11-21T06:21:01;29.17;;;17.92;;
39264;SDS011;42646;51.910;7.724;2022-11-21T06:23:30;29.15;;;17.80;;
39264;SDS011;42646;51.910;7.724;2022-11-21T06:25:59;29.60;;;19.23;;
39264;SDS011;42646;51.910;7.724;2022-11-21T06:28:30;31.88;;;18.42;;
39264;SDS011;42646;51.910;7.724;2022-11-21T06:31:03;30.17;;;19.02;;
39264;SDS011;42646;51.910;7.724;2022-11-21T06:33:33;32.92;;;18.60;;
39264;SDS011;42646;51.910;7.724;2022-11-21T06:36:02;29.55;;;18.58;;
39264;SDS011;42646;51.910;7.724;2022-11-21T06:38:30;30.35;;;18.48;;
39264;SDS011;42646;51.910;7.724;2022-11-21T06:41:02;31.10;;;18.38;;
39264;SDS011;42646;51.910;7.724;2022-11-21T06:43:31;28.55;;;18.08;;
39264;SDS011;42646;51.910;7.724;2022-11-21T06:45:59;29.75;;;18.10;;
39264;SDS011;42646;51.910;7.724;2022-11-21T06:48:29;30.15;;;18.25;;
39264;SDS011;42646;51.910;7.724;2022-11-21T06:51:02;32.58;;;18.55;;
39264;SDS011;42646;51.910;7.724;2022-11-21T06:53:31;30.33;;;17.70;;
39264;SDS011;42646;51.910;7.724;2022-11-21T06:55:59;30.67;;;18.05;;
39264;SDS011;42646;51.910;7.724;2022-11-21T06:58:27;30.45;;;18.98;;
39264;SDS011;42646;51.910;7.724;2022-11-21T07:00:55;29.85;;;18.90;;
39264;SDS011;42646;51.910;7.724;2022-11-21T07:03:23;32.70;;;19.55;;
39264;SDS011;42646;51.910;7.724;2022-11-21T07:05:50;30.30;;;17.83;;
39264;SDS011;42646;51.910;7.724;2022-11-21T07:08:25;31.83;;;19.60;;
39264;SDS011;42646;51.910;7.724;2022-11-21T07:11:37;32.17;;;19.83;;
39264;SDS011;42646;51.910;7.724;2022-11-21T07:14:07;31.40;;;18.38;;
39264;SDS011;42646;51.910;7.724;2022-11-21T07:16:34;33.92;;;20.05;;
39264;SDS011;42646;51.910;7.724;2022-11-21T07:19:03;33.20;;;19.58;;
39264;SDS011;42646;51.910;7.724;2022-11-21T07:21:31;34.42;;;19.00;;
39264;SDS011;42646;51.910;7.724;2022-11-21T07:24:01;34.05;;;21.13;;
39264;SDS011;42646;51.910;7.724;2022-11-21T07:26:29;32.88;;;20.02;;
39264;SDS011;42646;51.910;7.724;2022-11-21T07:28:57;34.30;;;20.30;;
39264;SDS011;42646;51.910;7.724;2022-11-21T07:31:25;33.45;;;19.65;;
39264;SDS011;42646;51.910;7.724;2022-11-21T07:33:53;34.58;;;20.40;;
39264;SDS011;42646;51.910;7.724;2022-11-21T07:36:20;37.70;;;20.35;;
39264;SDS011;42646;51.910;7.724;2022-11-21T07:38:48;33.97;;;19.75;;
39264;SDS011;42646;51.910;7.724;2022-11-21T07:41:17;35.65;;;20.52;;
39264;SDS011;42646;51.910;7.724;2022-11-21T07:43:46;37.50;;;20.85;;
39264;SDS011;42646;51.910;7.724;2022-11-21T07:46:13;34.25;;;19.65;;
39264;SDS011;42646;51.910;7.724;2022-11-21T07:48:42;34.83;;;19.48;;
39264;SDS011;42646;51.910;7.724;2022-11-21T07:51:09;36.78;;;21.33;;
39264;SDS011;42646;51.910;7.724;2022-11-21T07:53:37;36.03;;;21.13;;
39264;SDS011;42646;51.910;7.724;2022-11-21T07:56:05;34.97;;;20.17;;
39264;SDS011;42646;51.910;7.724;2022-11-21T07:58:36;34.20;;;19.30;;
39264;SDS011;42646;51.910;7.724;2022-11-21T08:01:04;36.55;;;20.15;;
39264;SDS011;42646;51.910;7.724;2022-11-21T08:03:33;36.72;;;20.08;;
39264;SDS011;42646;51.910;7.724;2022-11-21T08:06:02;37.60;;;20.65;;
39264;SDS011;42646;51.910;7.724;2022-11-21T08:08:32;36.13;;;20.35;;
39264;SDS011;42646;51.910;7.724;2022-11-21T08:11:02;37.20;;;21.05;;
39264;SDS011;42646;51.910;7.724;2022-11-21T08:13:31;36.40;;;20.73;;
39264;SDS011;42646;51.910;7.724;2022-11-21T08:16:07;36.33;;;19.98;;
39264;SDS011;42646;51.910;7.724;2022-11-21T08:18:35;38.30;;;22.02;;
39264;SDS011;42646;51.910;7.724;2022-11-21T08:21:04;35.70;;;19.85;;
39264;SDS011;42646;51.910;7.724;2022-11-21T08:23:31;38.63;;;20.80;;
39264;SDS011;42646;51.910;7.724;2022-11-21T08:25:59;36.92;;;21.10;;
39264;SDS011;42646;51.910;7.724;2022-11-21T08:28:33;40.25;;;20.92;;
39264;SDS011;42646;51.910;7.724;2022-11-21T08:31:01;40.42;;;21.08;;
39264;SDS011;42646;51.910;7.724;2022-11-21T08:33:31;40.83;;;21.48;;
39264;SDS011;42646;51.910;7.724;2022-11-21T08:36:02;39.25;;;21.38;;
39264;SDS011;42646;51.910;7.724;2022-11-21T08:38:31;43.40;;;22.33;;
39264;SDS011;42646;51.910;7.724;2022-11-21T08:40:59;41.90;;;21.95;;
39264;SDS011;42646;51.910;7.724;2022-11-21T08:43:44;42.38;;;21.88;;
39264;SDS011;42646;51.910;7.724;2022-11-21T08:46:13;45.05;;;22.42;;
39264;SDS011;42646;51.910;7.724;2022-11-21T08:49:06;42.53;;;22.42;;
39264;SDS011;42646;51.910;7.724;2022-11-21T08:51:34;45.80;;;22.70;;
39264;SDS011;42646;51.910;7.724;2022-11-21T08:54:03;41.60;;;22.23;;
39264;SDS011;42646;51.910;7.724;2022-11-21T08:56:30;41.95;;;22.23;;
39264;SDS011;42646;51.910;7.724;2022-11-21T08:59:00;44.13;;;21.73;;
39264;SDS011;42646;51.910;7.724;2022-11-21T09:01:31;48.83;;;22.98;;
39264;SDS011;42646;51.910;7.724;2022-11-21T09:03:59;45.60;;;23.65;;
39264;SDS011;42646;51.910;7.724;2022-11-21T09:06:29;45.92;;;23.23;;
39264;SDS011;42646;51.910;7.724;2022-11-21T09:08:57;45.15;;;22.95;;
39264;SDS011;42646;51.910;7.724;2022-11-21T09:11:25;41.58;;;22.85;;
39264;SDS011;42646;51.910;7.724;2022-11-21T09:13:52;47.95;;;23.65;;
39264;SDS011;42646;51.910;7.724;2022-11-21T09:16:40;47.33;;;23.60;;
39264;SDS011;42646;51.910;7.724;2022-11-21T09:19:27;46.30;;;23.13;;
39264;SDS011;42646;51.910;7.724;2022-11-21T09:21:57;48.17;;;24.42;;
39264;SDS011;42646;51.910;7.724;2022-11-21T09:24:29;50.08;;;25.13;;
39264;SDS011;42646;51.910;7.724;2022-11-21T09:26:57;51.22;;;25.00;;
39264;SDS011;42646;51.910;7.724;2022-11-21T09:29:25;50.55;;;24.75;;
39264;SDS011;42646;51.910;7.724;2022-11-21T09:31:53;48.10;;;23.20;;
39264;SDS011;42646;51.910;7.724;2022-11-21T09:34:22;50.33;;;25.27;;
39264;SDS011;42646;51.910;7.724;2022-11-21T09:36:51;50.60;;;25.10;;
39264;SDS011;42646;51.910;7.724;2022-11-21T09:39:20;53.50;;;25.73;;
39264;SDS011;42646;51.910;7.724;2022-11-21T09:41:51;55.88;;;26.40;;
39264;SDS011;42646;51.910;7.724;2022-11-21T09:44:36;50.28;;;24.73;;
39264;SDS011;42646;51.910;7.724;2022-11-21T09:47:17;53.60;;;26.08;;
39264;SDS011;42646;51.910;7.724;2022-11-21T09:49:51;52.20;;;24.92;;
39264;SDS011;42646;51.910;7.724;2022-11-21T09:52:23;51.83;;;23.92;;
39264;SDS011;42646;51.910;7.724;2022-11-21T09:54:59;52.80;;;24.80;;
39264;SDS011;42646;51.910;7.724;2022-11-21T09:57:30;51.85;;;25.00;;
39264;SDS011;42646;51.910;7.724;2022-11-21T10:00:03;48.38;;;24.38;;
39264;SDS011;42646;51.910;7.724;2022-11-21T10:02:49;45.70;;;23.02;;
39264;SDS011;42646;51.910;7.724;2022-11-21T10:05:22;46.63;;;23.00;;
39264;SDS011;42646;51.910;7.724;2022-11-21T10:07:56;50.35;;;24.45;;
39264;SDS011;42646;51.910;7.724;2022-11-21T10:10:37;53.83;;;24.83;;
39264;SDS011;42646;51.910;7.724;2022-11-21T10:13:18;41.95;;;21.90;;
39264;SDS011;42646;51.910;7.724;2022-11-21T10:15:56;47.30;;;23.98;;
39264;SDS011;42646;51.910;7.724;2022-11-21T10:18:34;50.10;;;25.40;;
39264;SDS011;42646;51.910;7.724;2022-11-21T10:21:29;48.47;;;23.85;;
39264;SDS011;42646;51.910;7.724;2022-11-21T10:24:17;49.40;;;23.60;;
39264;SDS011;42646;51.910;7.724;2022-11-21T10:27:01;50.33;;;24.58;;
39264;SDS011;42646;51.910;7.724;2022-11-21T10:29:35;48.33;;;24.67;;
39264;SDS011;42646;51.910;7.724;2022-11-21T10:34:39;49.78;;;24.90;;
39264;SDS011;42646;51.910;7.724;2022-11-21T10:37:09;54.50;;;26.10;;
39264;SDS011;42646;51.910;7.724;2022-11-21T10:39:42;53.80;;;26.67;;
39264;SDS011;42646;51.910;7.724;2022-11-21T10:42:16;54.22;;;27.20;;
39264;SDS011;42646;51.910;7.724;2022-11-21T10:44:57;49.90;;;25.83;;
39264;SDS011;42646;51.910;7.724;2022-11-21T10:47:45;51.75;;;25.65;;
39264;SDS011;42646;51.910;7.724;2022-11-21T10:50:17;51.22;;;25.15;;
39264;SDS011;42646;51.910;7.724;2022-11-21T10:52:58;46.33;;;23.92;;
39264;SDS011;42646;51.910;7.724;2022-11-21T10:55:56;52.97;;;24.92;;
39264;SDS011;42646;51.910;7.724;2022-11-21T10:58:33;50.95;;;25.70;;
39264;SDS011;42646;51.910;7.724;2022-11-21T11:01:17;55.22;;;25.00;;
39264;SDS011;42646;51.910;7.724;2022-11-21T11:03:47;60.83;;;28.83;;
39264;SDS011;42646;51.910;7.724;2022-11-21T11:06:52;57.45;;;26.33;;
39264;SDS011;42646;51.910;7.724;2022-11-21T11:09:23;57.35;;;26.23;;
39264;SDS011;42646;51.910;7.724;2022-11-21T11:12:20;51.78;;;26.27;;
39264;SDS011;42646;51.910;7.724;2022-11-21T11:15:22;56.45;;;26.13;;
39264;SDS011;42646;51.910;7.724;2022-11-21T11:17:52;56.58;;;27.98;;
39264;SDS011;42646;51.910;7.724;2022-11-21T11:20:35;56.75;;;28.00;;
39264;SDS011;42646;51.910;7.724;2022-11-21T11:23:16;52.55;;;26.95;;
39264;SDS011;42646;51.910;7.724;2022-11-21T11:25:51;55.60;;;27.45;;
39264;SDS011;42646;51.910;7.724;2022-11-21T11:28:19;51.88;;;26.33;;
39264;SDS011;42646;51.910;7.724;2022-11-21T11:30:51;46.20;;;24.73;;
39264;SDS011;42646;51.910;7.724;2022-11-21T11:33:31;47.92;;;25.58;;
39264;SDS011;42646;51.910;7.724;2022-11-21T11:36:11;49.47;;;25.63;;
39264;SDS011;42646;51.910;7.724;2022-11-21T11:38:43;47.85;;;25.10;;
39264;SDS011;42646;51.910;7.724;2022-11-21T11:41:18;45.35;;;24.42;;
39264;SDS011;42646;51.910;7.724;2022-11-21T11:44:26;43.85;;;24.75;;
39264;SDS011;42646;51.910;7.724;2022-11-21T11:47:23;41.88;;;22.40;;
39264;SDS011;42646;51.910;7.724;2022-11-21T11:49:58;43.90;;;24.90;;
39264;SDS011;42646;51.910;7.724;2022-11-21T11:52:42;43.55;;;23.15;;
39264;SDS011;42646;51.910;7.724;2022-11-21T11:55:18;41.63;;;21.95;;
39264;SDS011;42646;51.910;7.724;2022-11-21T11:57:52;39.22;;;22.17;;
39264;SDS011;42646;51.910;7.724;2022-11-21T12:00:29;36.92;;;20.67;;
39264;SDS011;42646;51.910;7.724;2022-11-21T12:06:08;37.00;;;21.27;;
39264;SDS011;42646;51.910;7.724;2022-11-21T12:08:43;38.80;;;21.23;;
39264;SDS011;42646;51.910;7.724;2022-11-21T12:11:26;37.13;;;21.05;;
39264;SDS011;42646;51.910;7.724;2022-11-21T12:14:21;38.03;;;21.13;;
39264;SDS011;42646;51.910;7.724;2022-11-21T12:17:18;35.92;;;19.58;;
39264;SDS011;42646;51.910;7.724;2022-11-21T12:19:54;37.75;;;20.75;;
39264;SDS011;42646;51.910;7.724;2022-11-21T12:22:26;35.03;;;19.73;;
39264;SDS011;42646;51.910;7.724;2022-11-21T12:24:54;33.70;;;19.73;;
39264;SDS011;42646;51.910;7.724;2022-11-21T12:27:46;34.80;;;20.10;;
39264;SDS011;42646;51.910;7.724;2022-11-21T12:30:27;32.00;;;19.83;;
39264;SDS011;42646;51.910;7.724;2022-11-21T12:33:22;37.25;;;20.80;;
39264;SDS011;42646;51.910;7.724;2022-11-21T12:36:07;36.70;;;19.48;;
39264;SDS011;42646;51.910;7.724;2022-11-21T12:38:50;33.65;;;19.15;;
39264;SDS011;42646;51.910;7.724;2022-11-21T12:41:46;34.22;;;19.15;;
39264;SDS011;42646;51.910;7.724;2022-11-21T12:44:44;36.35;;;20.48;;
39264;SDS011;42646;51.910;7.724;2022-11-21T12:47:25;38.22;;;20.10;;
39264;SDS011;42646;51.910;7.724;2022-11-21T12:50:35;35.40;;;19.13;;
39264;SDS011;42646;51.910;7.724;2022-11-21T12:53:35;33.15;;;18.45;;
39264;SDS011;42646;51.910;7.724;2022-11-21T12:56:31;34.08;;;18.23;;
39264;SDS011;42646;51.910;7.724;2022-11-21T12:59:07;34.00;;;18.60;;
39264;SDS011;42646;51.910;7.724;2022-11-21T13:01:41;31.92;;;17.85;;
39264;SDS011;42646;51.910;7.724;2022-11-21T13:04:17;32.47;;;17.65;;
39264;SDS011;42646;51.910;7.724;2022-11-21T13:06:50;32.25;;;16.98;;
39264;SDS011;42646;51.910;7.724;2022-11-21T13:09:21;30.42;;;17.25;;
39264;SDS011;42646;51.910;7.724;2022-11-21T13:11:54;37.65;;;18.13;;
39264;SDS011;42646;51.910;7.724;2022-11-21T13:14:35;32.08;;;16.95;;
39264;SDS011;42646;51.910;7.724;2022-11-21T13:17:11;31.85;;;17.65;;
39264;SDS011;42646;51.910;7.724;2022-11-21T13:19:49;33.40;;;17.35;;
39264;SDS011;42646;51.910;7.724;2022-11-21T13:22:56;35.30;;;16.70;;
39264;SDS011;42646;51.910;7.724;2022-11-21T13:25:39;34.92;;;17.55;;
39264;SDS011;42646;51.910;7.724;2022-11-21T13:28:27;33.10;;;16.52;;
39264;SDS011;42646;51.910;7.724;2022-11-21T13:30:59;29.20;;;16.17;;
39264;SDS011;42646;51.910;7.724;2022-11-21T13:33:44;32.08;;;16.15;;
39264;SDS011;42646;51.910;7.724;2022-11-21T13:36:37;33.80;;;16.73;;
39264;SDS011;42646;51.910;7.724;2022-11-21T13:48:15;31.30;;;16.08;;
39264;SDS011;42646;51.910;7.724;2022-11-21T13:50:56;32.35;;;16.45;;
39264;SDS011;42646;51.910;7.724;2022-11-21T13:54:08;35.08;;;17.52;;
39264;SDS011;42646;51.910;7.724;2022-11-21T13:57:04;35.28;;;16.63;;
39264;SDS011;42646;51.910;7.724;2022-11-21T13:59:45;35.28;;;16.98;;
39264;SDS011;42646;51.910;7.724;2022-11-21T14:02:28;32.10;;;17.10;;
39264;SDS011;42646;51.910;7.724;2022-11-21T14:05:17;32.70;;;16.60;;
39264;SDS011;42646;51.910;7.724;2022-11-21T14:08:10;35.47;;;16.95;;
39264;SDS011;42646;51.910;7.724;2022-11-21T14:10:44;34.53;;;17.17;;
39264;SDS011;42646;51.910;7.724;2022-11-21T14:13:16;33.83;;;17.30;;
39264;SDS011;42646;51.910;7.724;2022-11-21T14:15:53;32.33;;;18.40;;
39264;SDS011;42646;51.910;7.724;2022-11-21T14:18:32;38.38;;;18.70;;
39264;SDS011;42646;51.910;7.724;2022-11-21T14:21:02;35.30;;;17.80;;
39264;SDS011;42646;51.910;7.724;2022-11-21T14:23:34;36.63;;;17.33;;
39264;SDS011;42646;51.910;7.724;2022-11-21T14:26:03;31.48;;;17.80;;
39264;SDS011;42646;51.910;7.724;2022-11-21T14:28:37;33.28;;;17.35;;
39264;SDS011;42646;51.910;7.724;2022-11-21T14:31:07;32.65;;;17.35;;
39264;SDS011;42646;51.910;7.724;2022-11-21T14:33:38;30.65;;;16.98;;
39264;SDS011;42646;51.910;7.724;2022-11-21T14:36:07;34.03;;;17.17;;
39264;SDS011;42646;51.910;7.724;2022-11-21T14:38:40;38.55;;;17.50;;
39264;SDS011;42646;51.910;7.724;2022-11-21T14:41:10;33.38;;;17.20;;
39264;SDS011;42646;51.910;7.724;2022-11-21T14:44:05;33.33;;;17.85;;
39264;SDS011;42646;51.910;7.724;2022-11-21T14:46:47;36.97;;;17.70;;
39264;SDS011;42646;51.910;7.724;2022-11-21T14:49:18;37.70;;;18.57;;
39264;SDS011;42646;51.910;7.724;2022-11-21T14:54:18;34.33;;;16.65;;
39264;SDS011;42646;51.910;7.724;2022-11-21T14:56:49;35.88;;;17.23;;
39264;SDS011;42646;51.910;7.724;2022-11-21T14:59:24;33.78;;;16.38;;
39264;SDS011;42646;51.910;7.724;2022-11-21T15:01:55;34.20;;;16.83;;
39264;SDS011;42646;51.910;7.724;2022-11-21T15:04:29;33.53;;;17.13;;
39264;SDS011;42646;51.910;7.724;2022-11-21T15:07:00;34.42;;;18.52;;
39264;SDS011;42646;51.910;7.724;2022-11-21T15:09:28;33.20;;;16.42;;
39264;SDS011;42646;51.910;7.724;2022-11-21T15:12:20;31.90;;;17.17;;
39264;SDS011;42646;51.910;7.724;2022-11-21T15:14:53;35.88;;;18.70;;
39264;SDS011;42646;51.910;7.724;2022-11-21T15:17:26;36.42;;;18.25;;